Time;durP1;ratioP1;P1;durP2;ratioP2;P2;SDS_P1;SDS_P2;PMS_P1;PMS_P2;Temp;Humidity;BMP_temperature;BMP_pressure;BME280_temperature;BME280_humidity;BME280_pressure;Samples;Min_cycle;Max_cycle;Signal;HPM_P1;HPM_P2
2022/12/04 00:02:21;;;;;;;3.00;0.60;;;23.80;45.40;;;;;;5089992;28;20190;-56
2022/12/04 00:04:52;;;;;;;0.60;0.50;;;23.80;45.60;;;;;;5091438;28;20194;-59
2022/12/04 00:07:23;;;;;;;0.73;0.40;;;23.90;45.80;;;;;;5090529;28;20207;-52
2022/12/04 00:09:53;;;;;;;1.30;0.60;;;23.90;45.80;;;;;;5091201;28;20209;-53
2022/12/04 00:12:24;;;;;;;1.05;0.52;;;23.90;45.90;;;;;;5091001;28;20222;-55
2022/12/04 00:14:55;;;;;;;0.50;0.43;;;24.00;46.10;;;;;;5090521;28;20241;-55
2022/12/04 00:17:28;;;;;;;1.05;0.63;;;24.00;46.30;;;;;;5076347;28;20283;-56
2022/12/04 00:19:58;;;;;;;0.20;0.20;;;24.00;46.30;;;;;;5071033;28;20206;-56
2022/12/04 00:22:30;;;;;;;0.73;0.43;;;24.10;46.20;;;;;;5071255;28;20565;-57
2022/12/04 00:25:00;;;;;;;1.25;0.50;;;24.10;46.10;;;;;;5071189;28;20194;-56
2022/12/04 00:27:32;;;;;;;2.05;0.40;;;24.20;46.10;;;;;;5070883;28;20222;-59
2022/12/04 00:30:03;;;;;;;1.08;0.50;;;24.20;46.10;;;;;;5087352;28;20193;-54
2022/12/04 00:32:35;;;;;;;0.88;0.50;;;24.20;46.10;;;;;;5090114;28;20218;-52
2022/12/04 00:35:06;;;;;;;1.00;0.50;;;24.30;46.10;;;;;;5091411;28;20196;-49
2022/12/04 00:37:37;;;;;;;0.63;0.30;;;24.30;46.20;;;;;;5088616;28;20211;-50
2022/12/04 00:40:09;;;;;;;1.08;0.43;;;24.30;46.40;;;;;;5071016;28;20556;-48
2022/12/04 00:42:40;;;;;;;1.50;0.50;;;24.40;46.40;;;;;;5074530;28;20273;-47
2022/12/04 00:45:11;;;;;;;0.95;0.50;;;24.50;46.60;;;;;;5089858;28;20205;-56
2022/12/04 00:47:43;;;;;;;0.52;0.30;;;24.50;46.60;;;;;;5089411;28;20586;-51
2022/12/04 00:50:14;;;;;;;0.98;0.52;;;24.50;46.70;;;;;;5069880;28;20202;-50
2022/12/04 00:52:45;;;;;;;1.20;0.52;;;24.50;46.60;;;;;;5070998;28;20287;-59
2022/12/04 00:55:16;;;;;;;1.00;0.50;;;24.60;46.90;;;;;;5092120;28;20685;-52
2022/12/04 00:57:47;;;;;;;1.02;0.60;;;24.60;46.80;;;;;;5094540;28;20248;-58
2022/12/04 01:00:18;;;;;;;0.90;0.63;;;24.70;46.90;;;;;;5094583;28;20198;-60
2022/12/04 01:02:51;;;;;;;0.52;0.52;;;24.70;46.70;;;;;;5094115;28;20190;-56
2022/12/04 01:05:21;;;;;;;0.82;0.60;;;24.70;46.50;;;;;;5093382;28;20277;-48
2022/12/04 01:07:52;;;;;;;0.80;0.60;;;24.80;46.50;;;;;;5092883;28;20229;-56
2022/12/04 01:10:23;;;;;;;1.08;0.50;;;24.80;46.40;;;;;;5093438;28;20556;-53
2022/12/04 01:12:54;;;;;;;0.95;0.52;;;24.80;46.40;;;;;;5093080;28;20226;-52
2022/12/04 01:15:26;;;;;;;0.70;0.50;;;24.90;46.50;;;;;;5093474;28;20589;-52
2022/12/04 01:17:58;;;;;;;1.42;0.60;;;24.90;46.40;;;;;;5092861;28;20214;-50
2022/12/04 01:20:29;;;;;;;0.50;0.50;;;24.90;46.30;;;;;;5093234;28;20201;-58
2022/12/04 01:23:00;;;;;;;4.63;0.60;;;25.00;46.30;;;;;;5091975;28;20685;-55
2022/12/04 01:25:30;;;;;;;1.48;0.60;;;25.00;45.90;;;;;;5073484;28;20661;-56
2022/12/04 01:28:01;;;;;;;1.75;0.50;;;25.10;45.70;;;;;;5072509;28;20225;-55
2022/12/04 01:30:32;;;;;;;3.03;0.85;;;25.10;46.00;;;;;;5086695;28;20198;-52
2022/12/04 01:33:04;;;;;;;1.50;0.45;;;25.10;46.10;;;;;;5092312;28;20241;-56
2022/12/04 01:35:35;;;;;;;1.45;0.50;;;25.20;46.10;;;;;;5092920;28;20198;-47
2022/12/04 01:38:06;;;;;;;1.15;0.50;;;25.20;46.00;;;;;;5092623;28;20210;-48
2022/12/04 01:40:37;;;;;;;1.13;0.60;;;25.20;45.90;;;;;;5093171;28;20645;-49
2022/12/04 01:43:11;;;;;;;1.73;0.50;;;25.30;45.90;;;;;;5091562;28;20654;-46
2022/12/04 01:45:43;;;;;;;1.02;0.60;;;25.30;45.90;;;;;;5092934;28;20213;-51
2022/12/04 01:48:23;;;;;;;1.45;0.38;;;25.40;46.00;;;;;;5093535;28;20217;-50
2022/12/04 01:50:56;;;;;;;2.58;0.70;;;25.40;46.00;;;;;;5093244;28;20679;-47
2022/12/04 01:53:27;;;;;;;3.88;0.82;;;25.50;45.70;;;;;;5093164;28;20305;-48
2022/12/04 01:55:59;;;;;;;2.72;0.60;;;25.50;45.70;;;;;;5092820;28;20206;-48
2022/12/04 01:58:33;;;;;;;1.40;0.65;;;25.50;45.60;;;;;;5090001;28;20260;-49
2022/12/04 02:01:07;;;;;;;1.90;0.77;;;25.60;45.50;;;;;;5092644;28;20198;-50
2022/12/04 02:03:40;;;;;;;1.65;0.50;;;25.60;45.30;;;;;;5093307;28;20393;-52
2022/12/04 02:06:11;;;;;;;1.65;0.60;;;25.60;45.50;;;;;;5091794;28;20194;-48
2022/12/04 02:08:42;;;;;;;1.10;0.70;;;25.60;45.60;;;;;;5093020;28;20190;-48
2022/12/04 02:11:21;;;;;;;1.48;0.70;;;25.70;45.70;;;;;;5093323;28;20224;-48
2022/12/04 02:14:02;;;;;;;1.10;0.60;;;25.70;45.80;;;;;;5091795;28;20218;-50
2022/12/04 02:16:39;;;;;;;1.40;0.73;;;25.80;45.80;;;;;;5092926;28;20247;-51
2022/12/04 02:19:27;;;;;;;1.27;0.70;;;25.80;45.50;;;;;;5091918;28;20193;-57
2022/12/04 02:22:00;;;;;;;1.42;0.50;;;25.90;45.40;;;;;;5092330;28;20583;-53
2022/12/04 02:24:49;;;;;;;1.98;0.50;;;25.90;45.30;;;;;;5081017;28;20195;-57
2022/12/04 02:27:36;;;;;;;1.35;0.60;;;25.90;45.00;;;;;;5072061;28;20761;-52
2022/12/04 02:30:10;;;;;;;1.85;0.70;;;26.00;45.00;;;;;;5082510;28;20876;-54
2022/12/04 02:32:47;;;;;;;0.73;0.52;;;26.00;44.90;;;;;;5092788;28;20700;-53
2022/12/04 02:35:23;;;;;;;1.10;0.50;;;26.10;45.20;;;;;;5091696;28;20273;-54
2022/12/04 02:37:58;;;;;;;0.95;0.43;;;26.10;45.10;;;;;;5091306;28;20252;-51
2022/12/04 02:40:31;;;;;;;0.77;0.40;;;26.20;45.20;;;;;;5088702;28;20182;-62
2022/12/04 02:43:07;;;;;;;2.25;0.57;;;26.20;45.10;;;;;;5091807;28;20206;-52
2022/12/04 02:45:43;;;;;;;1.88;0.77;;;26.20;43.60;;;;;;5091633;28;20201;-51
2022/12/04 02:48:17;;;;;;;1.63;0.77;;;26.30;43.80;;;;;;5092670;28;20270;-52
2022/12/04 02:50:52;;;;;;;1.00;0.60;;;26.30;44.00;;;;;;5071703;28;20195;-51
2022/12/04 02:53:26;;;;;;;1.30;0.60;;;26.30;44.00;;;;;;5072336;28;20226;-51
2022/12/04 02:56:00;;;;;;;1.35;0.70;;;26.40;44.10;;;;;;5071409;28;20338;-52
2022/12/04 02:58:36;;;;;;;2.13;0.88;;;26.50;44.30;;;;;;5084271;28;20574;-51
2022/12/04 03:01:22;;;;;;;0.90;0.65;;;26.50;44.30;;;;;;5091501;28;20688;-51
2022/12/04 03:03:56;;;;;;;1.10;0.70;;;26.50;44.30;;;;;;5091405;28;20194;-53
2022/12/04 03:06:29;;;;;;;2.50;0.60;;;26.60;44.30;;;;;;5091891;28;20201;-57
2022/12/04 03:09:04;;;;;;;2.17;0.55;;;26.70;44.30;;;;;;5091200;28;20193;-52
2022/12/04 03:11:38;;;;;;;1.30;0.60;;;26.70;44.30;;;;;;5090750;28;20204;-48
2022/12/04 03:14:14;;;;;;;0.93;0.52;;;26.80;44.50;;;;;;5090976;28;20213;-53
2022/12/04 03:16:49;;;;;;;1.48;0.60;;;26.80;44.60;;;;;;5091020;28;20309;-48
2022/12/04 03:19:24;;;;;;;1.08;0.57;;;26.90;44.70;;;;;;5091178;28;20178;-53
2022/12/04 03:21:58;;;;;;;1.60;0.70;;;26.90;44.70;;;;;;5091418;28;20279;-51
2022/12/04 03:24:32;;;;;;;1.08;0.70;;;27.00;44.80;;;;;;5091378;28;20196;-48
2022/12/04 03:27:06;;;;;;;1.13;0.63;;;27.00;44.70;;;;;;5091229;28;20241;-48
2022/12/04 03:29:43;;;;;;;1.05;0.50;;;27.10;44.70;;;;;;5090684;28;20201;-50
2022/12/04 03:32:20;;;;;;;1.13;0.60;;;27.10;44.50;;;;;;5090050;28;20197;-49
2022/12/04 03:34:57;;;;;;;1.00;0.60;;;27.20;44.50;;;;;;5090850;28;20193;-47
2022/12/04 03:37:34;;;;;;;1.88;0.73;;;27.20;44.50;;;;;;5089627;28;20228;-49
2022/12/04 03:40:10;;;;;;;1.00;0.50;;;27.30;44.50;;;;;;5085656;28;20205;-51
2022/12/04 03:42:45;;;;;;;1.08;0.75;;;27.30;44.50;;;;;;5083191;28;20205;-52
2022/12/04 03:45:22;;;;;;;0.93;0.60;;;27.40;44.50;;;;;;5086328;28;20590;-53
2022/12/04 03:48:03;;;;;;;1.30;0.70;;;27.40;44.40;;;;;;5090425;28;20669;-50
2022/12/04 03:50:39;;;;;;;1.95;0.60;;;27.50;44.60;;;;;;5090361;28;20676;-51
2022/12/04 03:53:18;;;;;;;0.88;0.60;;;27.50;44.70;;;;;;5078532;28;20268;-51
2022/12/04 03:55:54;;;;;;;1.58;0.70;;;27.60;44.60;;;;;;5082204;28;20200;-54
2022/12/04 03:58:29;;;;;;;1.50;0.70;;;27.60;44.80;;;;;;5086523;28;20209;-54
2022/12/04 04:01:02;;;;;;;0.88;0.50;;;27.60;44.80;;;;;;5089487;28;20194;-53
2022/12/04 04:03:38;;;;;;;1.08;0.55;;;27.70;44.90;;;;;;5089110;28;20566;-51
2022/12/04 04:06:12;;;;;;;0.82;0.50;;;27.70;44.70;;;;;;5089135;28;20198;-52
2022/12/04 04:08:46;;;;;;;0.98;0.50;;;27.80;44.70;;;;;;5089118;28;20561;-51
2022/12/04 04:11:20;;;;;;;3.55;0.70;;;27.80;44.60;;;;;;5089758;28;20598;-56
2022/12/04 04:25:14;;;;;;;0.85;0.63;;;28.00;44.30;;;;;;5089221;28;20696;-54
2022/12/04 04:27:52;;;;;;;0.45;0.45;;;28.10;44.30;;;;;;5089306;28;20225;-54
2022/12/04 04:30:23;;;;;;;0.63;0.40;;;28.20;44.30;;;;;;5091502;28;20205;-51
2022/12/04 04:33:00;;;;;;;1.00;0.50;;;28.10;44.20;;;;;;5092298;28;20221;-53
2022/12/04 04:35:42;;;;;;;0.95;0.52;;;28.20;44.30;;;;;;5092891;28;20202;-52
2022/12/04 04:38:20;;;;;;;0.90;0.60;;;28.20;44.40;;;;;;5092692;28;20224;-49
2022/12/04 04:40:57;;;;;;;0.95;0.63;;;28.20;44.40;;;;;;5092772;28;20201;-50
2022/12/04 04:43:33;;;;;;;0.60;0.40;;;28.30;44.40;;;;;;5093209;28;20653;-53
2022/12/04 04:46:12;;;;;;;0.70;0.50;;;28.30;44.40;;;;;;5092641;28;20214;-52
2022/12/04 04:48:45;;;;;;;1.35;0.32;;;28.30;44.30;;;;;;5093059;28;20202;-50
2022/12/04 04:51:19;;;;;;;0.68;0.50;;;28.40;44.30;;;;;;5091844;28;20194;-54
2022/12/04 04:53:52;;;;;;;0.77;0.40;;;28.40;44.30;;;;;;5091614;28;20716;-55
2022/12/04 04:56:25;;;;;;;0.47;0.40;;;28.40;44.20;;;;;;5091828;28;20186;-50
2022/12/04 04:58:55;;;;;;;1.05;0.60;;;28.50;44.20;;;;;;5092281;28;20198;-50
2022/12/04 05:01:29;;;;;;;0.60;0.45;;;28.50;44.10;;;;;;5092990;28;20420;-52
2022/12/04 05:04:00;;;;;;;0.75;0.40;;;28.50;43.90;;;;;;5092438;28;20199;-51
2022/12/04 05:06:32;;;;;;;0.77;0.40;;;28.50;43.90;;;;;;5092554;28;20194;-51
2022/12/04 05:09:03;;;;;;;1.58;0.40;;;28.60;43.70;;;;;;5092515;28;20201;-51
2022/12/04 05:11:34;;;;;;;1.10;0.40;;;28.60;43.70;;;;;;5091980;28;20287;-53
2022/12/04 05:14:04;;;;;;;0.95;0.50;;;28.60;43.80;;;;;;5092368;28;20244;-54
2022/12/04 05:16:35;;;;;;;0.85;0.43;;;28.60;43.90;;;;;;5092540;28;20221;-52
2022/12/04 05:21:55;;;;;;;2.50;0.57;;;28.70;43.60;;;;;;5092475;28;20212;-48
2022/12/04 05:24:26;;;;;;;0.55;0.40;;;28.70;43.70;;;;;;5092644;28;20205;-56
2022/12/04 05:26:57;;;;;;;1.48;0.60;;;28.70;43.70;;;;;;5092500;28;20224;-52
2022/12/04 05:29:28;;;;;;;1.25;0.40;;;28.70;43.70;;;;;;5092632;28;20676;-56
2022/12/04 05:31:59;;;;;;;1.08;0.60;;;28.70;43.70;;;;;;5092747;28;20194;-54
2022/12/04 05:34:30;;;;;;;0.93;0.40;;;28.80;43.70;;;;;;5092372;28;20221;-48
2022/12/04 05:37:03;;;;;;;1.85;0.50;;;28.80;43.70;;;;;;5091954;28;20206;-53
2022/12/04 05:39:33;;;;;;;1.38;0.57;;;28.80;43.60;;;;;;5091807;28;20556;-54
2022/12/04 05:42:04;;;;;;;0.77;0.43;;;28.90;43.70;;;;;;5091941;28;20198;-47
2022/12/04 05:44:35;;;;;;;0.93;0.40;;;28.90;43.70;;;;;;5092187;28;20673;-55
2022/12/04 05:47:06;;;;;;;1.45;0.70;;;28.90;42.90;;;;;;5088116;28;20210;-47
2022/12/04 05:49:37;;;;;;;1.52;0.60;;;28.90;42.50;;;;;;5071886;28;20198;-52
2022/12/04 05:52:10;;;;;;;1.30;0.70;;;28.90;42.10;;;;;;5076415;28;20201;-58
2022/12/04 05:54:41;;;;;;;0.75;0.40;;;28.80;41.90;;;;;;5092379;28;20214;-52
2022/12/04 05:57:12;;;;;;;0.93;0.70;;;28.80;42.50;;;;;;5092568;28;20222;-62
2022/12/04 05:59:42;;;;;;;0.98;0.52;;;28.80;42.90;;;;;;5092141;28;20237;-54
2022/12/04 06:02:14;;;;;;;0.80;0.47;;;28.80;43.00;;;;;;5092269;28;20194;-49
2022/12/04 06:04:44;;;;;;;2.28;0.60;;;28.80;42.90;;;;;;5091720;28;20662;-53
2022/12/04 06:07:17;;;;;;;0.45;0.40;;;28.90;42.90;;;;;;5076451;28;20210;-56
2022/12/04 06:09:48;;;;;;;1.08;0.57;;;28.90;43.00;;;;;;5091960;28;20195;-55
2022/12/04 06:12:18;;;;;;;0.88;0.65;;;28.90;43.00;;;;;;5091888;28;20696;-55
2022/12/04 06:14:49;;;;;;;1.13;0.50;;;28.90;42.80;;;;;;5091693;28;20221;-61
2022/12/04 06:17:20;;;;;;;1.02;0.50;;;28.90;42.80;;;;;;5092230;28;20229;-50
2022/12/04 06:19:52;;;;;;;1.83;0.73;;;28.90;42.80;;;;;;5091793;28;20194;-60
2022/12/04 06:22:24;;;;;;;1.60;0.50;;;28.90;42.70;;;;;;5091259;28;20194;-50
2022/12/04 06:24:55;;;;;;;1.25;0.60;;;28.90;42.60;;;;;;5091789;28;20237;-52
2022/12/04 06:27:26;;;;;;;1.27;0.60;;;28.90;42.60;;;;;;5091173;28;20214;-52
2022/12/04 06:29:56;;;;;;;0.55;0.43;;;29.00;42.50;;;;;;5091381;28;20198;-50
2022/12/04 06:32:27;;;;;;;1.58;0.63;;;29.00;42.30;;;;;;5091820;28;20198;-55
2022/12/04 06:34:58;;;;;;;0.98;0.50;;;29.00;42.20;;;;;;5091439;28;20226;-51
2022/12/04 06:37:31;;;;;;;1.25;0.50;;;29.00;42.10;;;;;;5090412;28;20218;-53
2022/12/04 06:40:02;;;;;;;0.65;0.47;;;29.00;41.80;;;;;;5079745;28;20198;-48
2022/12/04 06:42:33;;;;;;;1.05;0.50;;;29.00;41.90;;;;;;5071193;28;20191;-53
2022/12/04 06:45:03;;;;;;;1.20;0.60;;;29.00;41.80;;;;;;5070987;28;20685;-48
2022/12/04 06:47:36;;;;;;;2.30;0.57;;;29.00;41.70;;;;;;5071540;28;20219;-54
2022/12/04 06:50:08;;;;;;;1.00;0.60;;;29.00;41.80;;;;;;5070964;28;20194;-54
2022/12/04 06:52:40;;;;;;;1.10;0.50;;;29.00;42.00;;;;;;5075896;28;20194;-53
2022/12/04 06:55:11;;;;;;;2.00;0.70;;;29.10;41.90;;;;;;5090257;28;20226;-47
2022/12/04 06:57:42;;;;;;;0.82;0.47;;;29.10;42.00;;;;;;5090739;28;20214;-53
2022/12/04 07:00:13;;;;;;;0.47;0.47;;;29.10;41.90;;;;;;5090883;28;20202;-54
2022/12/04 07:02:44;;;;;;;1.17;0.43;;;29.10;41.90;;;;;;5091015;28;20748;-50
2022/12/04 07:05:15;;;;;;;0.63;0.35;;;29.10;41.90;;;;;;5090952;28;20200;-59
2022/12/04 07:07:47;;;;;;;0.90;0.52;;;29.10;41.70;;;;;;5090388;28;20762;-54
2022/12/04 07:10:18;;;;;;;1.15;0.60;;;29.10;41.70;;;;;;5090701;28;20201;-53
2022/12/04 07:12:49;;;;;;;1.30;0.47;;;29.10;41.70;;;;;;5090920;28;20197;-55
2022/12/04 07:15:20;;;;;;;0.43;0.40;;;29.10;41.60;;;;;;5090428;28;20712;-60
2022/12/04 07:17:50;;;;;;;1.20;0.40;;;29.00;41.40;;;;;;5090831;28;20214;-53
2022/12/04 07:20:21;;;;;;;1.55;0.65;;;29.10;41.30;;;;;;5090387;28;20657;-50
2022/12/04 07:22:54;;;;;;;0.77;0.50;;;29.00;41.10;;;;;;5089860;28;20182;-49
2022/12/04 07:25:28;;;;;;;3.25;0.55;;;29.00;40.90;;;;;;5091000;28;20669;-48
2022/12/04 07:27:58;;;;;;;1.73;0.52;;;28.90;40.80;;;;;;5090517;28;20573;-56
2022/12/04 07:30:29;;;;;;;1.10;0.65;;;28.90;40.80;;;;;;5090179;28;20204;-56
2022/12/04 07:33:00;;;;;;;1.30;0.40;;;28.90;40.80;;;;;;5090225;28;20231;-54
2022/12/04 07:35:31;;;;;;;1.05;0.40;;;28.90;40.90;;;;;;5089707;28;20214;-57
2022/12/04 07:38:03;;;;;;;0.55;0.40;;;28.80;41.00;;;;;;5089248;28;20206;-59
2022/12/04 07:40:34;;;;;;;1.33;0.45;;;28.80;41.10;;;;;;5089884;28;20230;-54
2022/12/04 07:43:04;;;;;;;0.90;0.50;;;28.80;41.00;;;;;;5090192;28;20194;-55
2022/12/04 07:45:35;;;;;;;0.77;0.60;;;28.80;41.00;;;;;;5089944;28;20213;-55
2022/12/04 07:48:06;;;;;;;1.25;0.40;;;28.70;41.00;;;;;;5090732;28;20214;-48
2022/12/04 07:50:37;;;;;;;0.70;0.50;;;28.70;41.00;;;;;;5090248;28;20205;-58
2022/12/04 07:53:09;;;;;;;0.50;0.40;;;28.70;41.10;;;;;;5089439;28;20201;-57
2022/12/04 07:55:40;;;;;;;0.60;0.50;;;28.60;40.90;;;;;;5082103;28;20225;-48
2022/12/04 07:58:11;;;;;;;0.88;0.30;;;28.60;40.90;;;;;;5069880;28;20215;-57
2022/12/04 08:00:42;;;;;;;0.50;0.30;;;28.60;40.80;;;;;;5084780;28;20193;-57
2022/12/04 08:03:12;;;;;;;1.05;0.30;;;28.50;40.80;;;;;;5088643;28;20190;-59
2022/12/04 08:05:43;;;;;;;1.08;0.50;;;28.50;40.80;;;;;;5090045;28;20658;-61
2022/12/04 08:08:15;;;;;;;0.80;0.47;;;28.40;40.80;;;;;;5089628;28;20213;-54
2022/12/04 08:10:46;;;;;;;1.10;0.60;;;28.40;40.80;;;;;;5089404;28;20201;-56
2022/12/04 08:13:17;;;;;;;1.30;0.40;;;28.40;41.50;;;;;;5089771;28;20283;-57
2022/12/04 08:15:48;;;;;;;1.40;0.50;;;28.30;40.80;;;;;;5089745;28;20225;-59
2022/12/04 08:18:20;;;;;;;1.45;0.70;;;28.30;40.80;;;;;;5089702;28;20217;-53
2022/12/04 08:20:52;;;;;;;0.57;0.38;;;28.30;40.80;;;;;;5089724;28;20205;-62
2022/12/04 08:23:25;;;;;;;1.27;0.43;;;28.20;40.90;;;;;;5089319;28;20206;-58
2022/12/04 08:25:55;;;;;;;0.60;0.40;;;28.20;40.90;;;;;;5089934;28;20207;-52
2022/12/04 08:28:26;;;;;;;0.52;0.40;;;28.10;40.80;;;;;;5089945;28;20218;-53
2022/12/04 08:30:57;;;;;;;0.57;0.40;;;28.20;40.90;;;;;;5089337;28;20205;-47
2022/12/04 08:33:28;;;;;;;0.90;0.50;;;28.10;40.80;;;;;;5088471;28;20194;-49
2022/12/04 08:35:59;;;;;;;0.52;0.35;;;28.10;40.80;;;;;;5089323;28;20201;-50
2022/12/04 08:38:31;;;;;;;0.60;0.43;;;28.00;40.70;;;;;;5089503;28;20214;-49
2022/12/04 08:41:03;;;;;;;0.70;0.50;;;28.00;40.80;;;;;;5088001;28;20201;-48
2022/12/04 08:43:34;;;;;;;1.40;0.50;;;27.90;40.80;;;;;;5071222;28;20257;-50
2022/12/04 08:46:06;;;;;;;0.55;0.40;;;27.90;40.80;;;;;;5070099;28;20669;-48
2022/12/04 08:48:38;;;;;;;1.95;0.60;;;27.90;40.90;;;;;;5087554;28;20206;-54
2022/12/04 08:51:13;;;;;;;2.17;0.60;;;27.80;40.90;;;;;;5090681;28;20205;-49
2022/12/04 08:53:47;;;;;;;1.10;0.40;;;27.80;41.00;;;;;;5090243;28;20202;-63
2022/12/04 08:56:17;;;;;;;1.23;0.60;;;27.80;41.00;;;;;;5090126;28;20194;-49
2022/12/04 08:58:48;;;;;;;2.17;1.00;;;27.70;41.00;;;;;;5090351;28;20218;-55
2022/12/04 09:01:19;;;;;;;2.92;0.60;;;27.70;41.00;;;;;;5090428;28;20197;-62
2022/12/04 09:03:50;;;;;;;1.88;0.65;;;27.70;41.10;;;;;;5090927;28;20204;-56
2022/12/04 09:06:21;;;;;;;2.17;0.90;;;27.60;41.10;;;;;;5090294;28;20205;-54
2022/12/04 09:08:55;;;;;;;1.38;0.60;;;27.60;41.20;;;;;;5090375;28;20225;-53
2022/12/04 09:11:29;;;;;;;3.30;0.80;;;27.60;41.20;;;;;;5090910;28;20255;-57
2022/12/04 09:13:59;;;;;;;3.55;0.82;;;27.60;41.30;;;;;;5091036;28;20556;-58
2022/12/04 09:16:30;;;;;;;1.80;0.80;;;27.50;41.20;;;;;;5093804;28;20209;-51
2022/12/04 09:19:01;;;;;;;1.52;0.77;;;27.50;41.30;;;;;;5093791;28;20190;-47
2022/12/04 09:21:32;;;;;;;2.63;0.95;;;27.50;41.40;;;;;;5093972;28;20194;-48
2022/12/04 09:24:05;;;;;;;2.08;0.82;;;27.40;41.40;;;;;;5094273;28;20205;-47
2022/12/04 09:26:36;;;;;;;1.73;0.70;;;27.40;41.50;;;;;;5094116;28;20194;-56
2022/12/04 09:29:08;;;;;;;1.38;0.70;;;27.30;41.50;;;;;;5093718;28;20205;-56
2022/12/04 09:31:39;;;;;;;3.03;1.05;;;27.30;41.60;;;;;;5093848;28;20190;-59
2022/12/04 09:34:10;;;;;;;2.45;0.77;;;27.20;41.60;;;;;;5093552;28;20585;-48
2022/12/04 09:36:41;;;;;;;1.58;0.80;;;27.30;41.70;;;;;;5093747;28;20197;-51
2022/12/04 09:39:13;;;;;;;1.02;0.70;;;27.20;41.70;;;;;;5093686;28;20641;-49
2022/12/04 09:42:04;;;;;;;2.53;0.70;;;27.20;41.80;;;;;;5093184;28;20204;-49
2022/12/04 09:44:38;;;;;;;2.28;0.80;;;27.10;41.70;;;;;;5093182;28;20649;-48
2022/12/04 09:47:15;;;;;;;3.00;0.93;;;27.10;42.40;;;;;;5093596;28;20214;-47
2022/12/04 09:49:50;;;;;;;2.45;1.00;;;27.10;41.80;;;;;;5093755;28;20198;-47
2022/12/04 09:52:36;;;;;;;1.92;0.90;;;27.00;41.80;;;;;;5094037;28;20198;-49
2022/12/04 09:55:16;;;;;;;1.95;0.93;;;27.00;41.90;;;;;;5093487;28;20217;-48
2022/12/04 09:57:49;;;;;;;2.25;0.75;;;27.00;42.00;;;;;;5093303;28;20255;-50
2022/12/04 10:00:22;;;;;;;3.85;0.80;;;27.00;42.00;;;;;;5092922;28;20194;-47
2022/12/04 10:02:57;;;;;;;2.65;0.90;;;26.90;42.10;;;;;;5090322;28;20190;-49
2022/12/04 10:05:41;;;;;;;3.53;1.00;;;26.90;42.10;;;;;;5093165;28;20208;-51
2022/12/04 10:08:20;;;;;;;1.48;0.85;;;26.80;42.10;;;;;;5093558;28;20239;-47
2022/12/04 10:11:01;;;;;;;3.03;1.10;;;26.80;42.20;;;;;;5092970;28;20201;-51
2022/12/04 10:14:01;;;;;;;2.03;0.95;;;26.80;42.30;;;;;;5093052;28;20200;-48
2022/12/04 10:16:42;;;;;;;2.17;0.90;;;26.80;42.30;;;;;;5091056;28;20557;-51
2022/12/04 10:19:21;;;;;;;1.85;0.98;;;26.70;42.30;;;;;;5092859;28;20194;-51
2022/12/04 10:22:01;;;;;;;1.35;0.82;;;26.70;42.30;;;;;;5092998;28;20642;-56
2022/12/04 10:24:39;;;;;;;2.90;1.10;;;26.70;42.30;;;;;;5093166;28;20216;-52
2022/12/04 10:27:18;;;;;;;2.42;0.95;;;26.60;42.40;;;;;;5091551;28;20613;-57
2022/12/04 10:29:52;;;;;;;2.13;1.02;;;26.60;42.40;;;;;;5092734;28;20209;-48
2022/12/04 10:32:27;;;;;;;2.22;0.88;;;26.50;42.40;;;;;;5092665;28;20205;-49
2022/12/04 10:35:01;;;;;;;3.40;1.10;;;26.50;42.50;;;;;;5092946;28;20876;-59
2022/12/04 10:37:34;;;;;;;2.80;1.00;;;26.50;42.50;;;;;;5092943;28;20221;-53
2022/12/04 10:40:09;;;;;;;1.33;0.77;;;26.50;42.60;;;;;;5092725;28;20202;-58
2022/12/04 10:42:45;;;;;;;3.35;1.20;;;26.40;42.60;;;;;;5092715;28;20186;-60
2022/12/04 10:45:16;;;;;;;1.83;1.00;;;26.40;42.70;;;;;;5092626;28;20292;-59
2022/12/04 10:47:49;;;;;;;2.40;1.00;;;26.40;42.70;;;;;;5093042;28;20214;-59
2022/12/04 10:50:22;;;;;;;2.38;1.25;;;26.30;42.70;;;;;;5089140;28;20581;-60
2022/12/04 10:52:52;;;;;;;2.35;1.20;;;26.30;42.80;;;;;;5092188;28;20616;-63
2022/12/04 10:55:37;;;;;;;3.50;0.95;;;26.30;42.80;;;;;;5092587;28;20701;-53
2022/12/04 10:58:18;;;;;;;1.98;1.00;;;26.30;42.90;;;;;;5092700;28;20301;-61
2022/12/04 11:01:06;;;;;;;2.47;1.10;;;26.20;42.80;;;;;;5092319;28;20202;-62
2022/12/04 11:03:38;;;;;;;1.90;1.00;;;26.20;42.80;;;;;;5092285;28;20194;-60
2022/12/04 11:06:11;;;;;;;2.33;1.00;;;26.20;42.80;;;;;;5092032;28;20186;-56
2022/12/04 11:08:45;;;;;;;1.48;0.77;;;26.10;42.80;;;;;;5091871;28;20217;-61
2022/12/04 11:11:18;;;;;;;3.25;1.05;;;26.10;42.90;;;;;;5092682;28;20198;-58
2022/12/04 11:13:50;;;;;;;1.20;0.85;;;26.00;42.90;;;;;;5092395;28;20208;-59
2022/12/04 11:16:38;;;;;;;1.60;0.90;;;26.00;43.00;;;;;;5092016;28;20222;-60
2022/12/04 11:19:23;;;;;;;3.03;1.30;;;26.00;43.00;;;;;;5092614;28;20205;-63
2022/12/04 11:21:56;;;;;;;2.30;1.00;;;25.90;43.00;;;;;;5092380;28;20194;-63
2022/12/04 11:24:29;;;;;;;2.33;1.00;;;25.90;43.10;;;;;;5092035;28;20204;-64
2022/12/04 11:27:01;;;;;;;2.85;1.20;;;25.90;43.20;;;;;;5092012;28;20210;-59
2022/12/04 11:29:37;;;;;;;1.45;1.00;;;25.90;43.20;;;;;;5092015;28;20209;-60
2022/12/04 11:32:15;;;;;;;1.75;1.13;;;25.80;43.20;;;;;;5091803;28;20662;-54
2022/12/04 11:34:50;;;;;;;3.25;1.05;;;25.80;43.20;;;;;;5092081;28;20224;-60
2022/12/04 11:37:23;;;;;;;2.38;0.90;;;25.80;43.20;;;;;;5091751;28;20772;-61
2022/12/04 11:39:55;;;;;;;2.08;0.85;;;25.80;43.20;;;;;;5091543;28;20567;-58
2022/12/04 11:42:28;;;;;;;3.78;1.13;;;25.70;43.20;;;;;;5091479;28;20194;-59
2022/12/04 11:45:01;;;;;;;1.63;0.93;;;25.70;43.30;;;;;;5091524;28;20581;-59
2022/12/04 11:47:33;;;;;;;2.58;1.20;;;25.70;43.30;;;;;;5091962;28;20221;-57
2022/12/04 11:50:14;;;;;;;1.48;0.90;;;25.60;43.30;;;;;;5091537;28;20204;-59
2022/12/04 11:53:01;;;;;;;2.67;1.30;;;25.60;43.40;;;;;;5092076;28;20198;-60
2022/12/04 11:55:37;;;;;;;1.67;1.02;;;25.50;43.40;;;;;;5091910;28;20639;-57
2022/12/04 11:58:25;;;;;;;2.45;1.08;;;25.50;43.50;;;;;;5091737;28;20701;-54
2022/12/04 12:01:11;;;;;;;2.25;1.10;;;25.50;43.50;;;;;;5091429;28;20202;-52
2022/12/04 12:03:51;;;;;;;1.50;0.90;;;25.40;43.50;;;;;;5087902;28;20242;-57
2022/12/04 12:06:36;;;;;;;2.58;1.15;;;25.40;43.50;;;;;;5071424;28;20190;-55
2022/12/04 12:09:24;;;;;;;2.58;1.10;;;25.40;43.50;;;;;;5071031;28;21001;-59
2022/12/04 12:12:00;;;;;;;1.98;1.17;;;25.30;43.50;;;;;;5071416;28;20190;-58
2022/12/04 12:14:39;;;;;;;1.50;0.90;;;25.30;43.70;;;;;;5071375;28;20205;-59
2022/12/04 12:17:20;;;;;;;3.10;1.13;;;25.30;43.70;;;;;;5071093;28;20218;-54
2022/12/04 12:20:05;;;;;;;1.58;1.08;;;25.30;43.70;;;;;;5071003;28;20282;-61
2022/12/04 12:23:04;;;;;;;3.65;0.93;;;25.30;43.70;;;;;;5070552;28;20234;-56
2022/12/04 12:25:41;;;;;;;3.20;1.15;;;25.20;43.70;;;;;;5070931;28;20206;-55
2022/12/04 12:28:24;;;;;;;1.58;0.73;;;25.20;43.70;;;;;;5071088;28;20584;-54
2022/12/04 12:31:09;;;;;;;2.67;1.02;;;25.10;43.80;;;;;;5087895;28;20197;-57
2022/12/04 12:33:50;;;;;;;1.35;0.90;;;25.10;43.80;;;;;;5091203;28;20273;-58
2022/12/04 12:36:23;;;;;;;2.40;1.10;;;25.10;43.90;;;;;;5091674;28;20226;-57
2022/12/04 12:38:57;;;;;;;2.50;1.05;;;25.10;43.90;;;;;;5091362;28;20225;-53
2022/12/04 12:41:33;;;;;;;2.28;1.13;;;25.10;43.90;;;;;;5091297;28;20198;-55
2022/12/04 12:44:07;;;;;;;1.83;1.10;;;25.00;43.90;;;;;;5091265;28;20193;-58
2022/12/04 12:46:42;;;;;;;1.80;0.90;;;25.00;43.90;;;;;;5090913;28;20189;-56
2022/12/04 12:49:19;;;;;;;1.45;0.90;;;25.00;44.00;;;;;;5071465;28;20712;-54
2022/12/04 12:51:56;;;;;;;2.30;1.10;;;24.90;44.00;;;;;;5074814;28;20190;-52
2022/12/04 12:54:34;;;;;;;2.17;0.82;;;24.90;44.00;;;;;;5092809;28;20193;-54
2022/12/04 12:57:12;;;;;;;2.28;0.80;;;24.90;44.00;;;;;;5094441;28;20241;-52
2022/12/04 12:59:47;;;;;;;1.95;1.00;;;24.90;44.00;;;;;;5094782;28;20197;-52
2022/12/04 13:02:31;;;;;;;2.15;1.23;;;24.80;44.00;;;;;;5094706;28;20287;-59
2022/12/04 13:05:09;;;;;;;1.70;0.90;;;24.80;44.10;;;;;;5095028;28;20198;-58
2022/12/04 13:07:49;;;;;;;1.85;0.95;;;24.70;44.20;;;;;;5094512;28;20217;-59
2022/12/04 13:10:24;;;;;;;1.55;0.80;;;24.70;44.20;;;;;;5094603;28;20198;-60
2022/12/04 13:12:58;;;;;;;1.92;0.90;;;24.70;44.30;;;;;;5094425;28;20197;-55
2022/12/04 13:15:35;;;;;;;1.20;0.88;;;24.70;44.30;;;;;;5094206;28;20228;-51
2022/12/04 13:18:08;;;;;;;2.85;1.20;;;24.60;44.30;;;;;;5094520;28;20226;-57
2022/12/04 13:20:51;;;;;;;1.83;0.90;;;24.60;44.30;;;;;;5094542;28;20195;-52
2022/12/04 13:23:48;;;;;;;1.33;0.80;;;24.60;44.30;;;;;;5094491;28;20194;-53
2022/12/04 13:26:33;;;;;;;2.13;1.00;;;24.60;44.30;;;;;;5094524;28;20221;-54
2022/12/04 13:29:14;;;;;;;1.60;0.90;;;24.50;44.30;;;;;;5094194;28;20214;-55
2022/12/04 13:31:53;;;;;;;2.63;1.20;;;24.50;44.40;;;;;;5094216;28;20194;-51
2022/12/04 13:34:45;;;;;;;1.23;0.75;;;24.50;44.40;;;;;;5094194;28;20198;-58
2022/12/04 13:37:34;;;;;;;1.95;1.17;;;24.40;44.40;;;;;;5094103;28;20229;-61
2022/12/04 13:40:35;;;;;;;1.52;0.82;;;24.30;44.40;;;;;;5094190;28;20202;-53